MMTM/TAM METAR and TAF weather

Enter ICAO airport designator
Station Type Date Time Source
MMTM METAR 2022/06/30 13:40 UTC NOAA

MMTM 301340Z 00000KT 7SM SCT200 28/25 A3003 RMK 8/001 CU HZY


Station Type Date Time Source
MMTM Decoded METAR 2022/06/30 13:40 UTC NOAA

Tampico / Gen Fj Mina, Mexico (MMTM) 22-17N 097-52W
Jun 30, 2022 - 09:40 AM EDT / 2022.06.30 1340 UTC
Wind: Calm:0
Visibility: 7 mile(s):0
Sky conditions: partly cloudy
Temperature: 82 F (28 C)
Dew Point: 77 F (25 C)
Relative Humidity: 83%
Pressure (altimeter): 30.03 in. Hg (1016 hPa)
ob: MMTM 301340Z 00000KT 7SM SCT200 28/25 A3003 RMK 8/001 CU HZY
cycle: 13

Station Type Date Time Source
MMTM TAF 2022/06/30 06:22 UTC NOAA

TAF MMTM 300417Z 3006/0106 12005KT P6SM SCT200
FM301600 12010KT P6SM SCT015 SCT200
FM010300 12005KT P6SM SCT015 SCT200

Example: see airport list